createdAt,value
2023-03-01T00:00:14.884Z,60.22
2023-03-01T00:05:19.235Z,59.56
2023-03-01T00:10:22.016Z,59.56
2023-03-01T00:15:24.751Z,59.44
2023-03-01T00:20:28.952Z,60.10
2023-03-01T00:25:31.710Z,59.88
2023-03-01T00:30:35.161Z,59.68
2023-03-01T00:35:39.428Z,59.41
2023-03-01T00:40:42.408Z,59.11
2023-03-01T00:45:45.269Z,59.27
2023-03-01T00:50:49.384Z,59.06
2023-03-01T00:55:52.128Z,58.43
2023-03-01T01:00:54.987Z,58.71
2023-03-01T01:05:59.095Z,59.02
2023-03-01T01:11:01.855Z,59.14
2023-03-01T01:16:05.268Z,59.17
2023-03-01T01:21:12.065Z,59.33
2023-03-01T01:26:16.822Z,59.21
2023-03-01T01:31:20.760Z,59.85
2023-03-01T01:36:25.559Z,59.70
2023-03-01T01:41:30.355Z,59.81
2023-03-01T01:46:35.397Z,60.61
2023-03-01T01:51:44.562Z,61.31
2023-03-01T01:56:54.268Z,61.46
2023-03-01T02:01:57.243Z,61.64
2023-03-01T02:07:05.460Z,61.36
2023-03-01T02:12:08.366Z,62.15
2023-03-01T02:17:12.157Z,63.01
2023-03-01T02:22:24.482Z,62.26
2023-03-01T02:27:33.717Z,62.09
2023-03-01T02:32:37.931Z,61.52
2023-03-01T02:37:41.969Z,61.65
2023-03-01T02:42:52.567Z,61.79
2023-03-01T02:47:58.346Z,62.33
2023-03-01T02:53:10.076Z,62.31
2023-03-01T02:58:13.257Z,62.30
2023-03-01T03:03:19.102Z,62.19
2023-03-01T03:08:25.119Z,62.14
2023-03-01T03:13:29.473Z,62.60
2023-03-01T03:18:33.733Z,62.89
2023-03-01T03:23:37.022Z,63.06
2023-03-01T03:28:40.834Z,64.26
2023-03-01T03:33:45.280Z,64.92
2023-03-01T03:38:49.746Z,64.65
2023-03-01T03:43:52.527Z,64.44
2023-03-01T03:48:56.671Z,64.55
2023-03-01T03:53:59.445Z,64.83
2023-03-01T03:59:02.231Z,65.40
2023-03-01T04:04:08.746Z,65.65
2023-03-01T04:09:11.529Z,65.87
2023-03-01T04:14:14.269Z,65.95
2023-03-01T04:19:18.388Z,65.96
2023-03-01T04:24:21.340Z,65.59
2023-03-01T04:29:24.217Z,65.71
2023-03-01T04:34:28.489Z,66.00
2023-03-01T04:39:31.439Z,65.75
2023-03-01T04:44:34.176Z,65.67
2023-03-01T04:49:38.528Z,65.60
2023-03-01T04:54:41.267Z,65.78
2023-03-01T04:59:44.962Z,65.53
2023-03-01T05:04:49.160Z,65.59
2023-03-01T05:09:54.001Z,65.65
2023-03-01T05:14:57.779Z,65.62
2023-03-01T05:20:01.989Z,65.40
2023-03-01T05:25:05.876Z,65.34
2023-03-01T05:30:15.214Z,65.43
2023-03-01T05:35:20.163Z,64.81
2023-03-01T05:40:25.132Z,64.81
2023-03-01T05:45:29.539Z,64.65
2023-03-01T05:50:35.878Z,64.38
2023-03-01T05:55:39.382Z,64.27
2023-03-01T06:00:43.144Z,64.35
2023-03-01T06:05:47.406Z,64.65
2023-03-01T06:10:50.247Z,65.11
2023-03-01T06:15:53.795Z,64.76
2023-03-01T06:20:58.380Z,65.07
2023-03-01T06:26:01.942Z,65.01
2023-03-01T06:31:04.899Z,64.77
2023-03-01T06:36:10.986Z,64.20
2023-03-01T06:41:13.758Z,63.92
2023-03-01T06:46:17.105Z,63.04
2023-03-01T06:51:21.403Z,62.29
2023-03-01T06:56:24.124Z,62.73
2023-03-01T07:01:27.114Z,64.69
2023-03-01T07:06:31.647Z,64.67
2023-03-01T07:11:34.721Z,62.13
2023-03-01T07:16:37.601Z,60.28
2023-03-01T07:21:41.717Z,59.19
2023-03-01T07:26:44.495Z,57.57
2023-03-01T07:31:47.549Z,56.44
2023-03-01T07:36:51.700Z,55.73
2023-03-01T07:41:54.491Z,55.24
2023-03-01T07:46:59.129Z,54.68
2023-03-01T07:52:03.267Z,54.24
2023-03-01T07:57:06.050Z,54.09
2023-03-01T08:02:10.585Z,53.78
2023-03-01T08:07:14.718Z,53.85
2023-03-01T08:12:17.842Z,53.36
2023-03-01T08:17:20.582Z,52.90
2023-03-01T08:22:24.706Z,52.82
2023-03-01T08:27:27.443Z,53.67
2023-03-01T08:32:30.301Z,54.98
2023-03-01T08:37:34.461Z,53.14
2023-03-01T08:42:37.263Z,52.16
2023-03-01T08:47:40.136Z,51.21
2023-03-01T08:52:44.363Z,49.21
2023-03-01T08:57:47.127Z,47.88
2023-03-01T09:02:49.825Z,46.47
2023-03-01T09:07:54.050Z,45.84
2023-03-01T09:12:56.871Z,46.14
2023-03-01T09:18:00.092Z,46.31
2023-03-01T09:23:04.361Z,46.97
2023-03-01T09:28:07.183Z,46.49
2023-03-01T09:33:15.582Z,47.43
2023-03-01T09:38:19.727Z,46.78
2023-03-01T09:43:28.408Z,44.04
2023-03-01T09:48:39.149Z,39.53
2023-03-01T09:53:43.401Z,38.52
2023-03-01T09:58:53.659Z,37.68
2023-03-01T10:04:08.025Z,36.61
2023-03-01T10:09:15.952Z,36.72
2023-03-01T10:14:31.078Z,37.05
2023-03-01T10:19:38.457Z,36.78
2023-03-01T10:24:42.925Z,36.14
2023-03-01T10:29:51.079Z,35.31
2023-03-01T10:34:53.990Z,34.84
2023-03-01T10:40:00.628Z,35.01
2023-03-01T10:45:28.799Z,35.00
2023-03-01T10:50:31.563Z,34.31
2023-03-01T10:55:38.662Z,33.63
2023-03-01T11:00:49.943Z,32.73
2023-03-01T11:06:04.396Z,32.02
2023-03-01T11:11:18.777Z,30.13
2023-03-01T11:16:31.162Z,30.20
2023-03-01T11:21:36.946Z,28.83
2023-03-01T11:26:45.246Z,27.70
2023-03-01T11:31:57.580Z,28.02
2023-03-01T11:37:03.859Z,27.88
2023-03-01T11:42:19.173Z,27.97
2023-03-01T11:47:34.927Z,28.08
2023-03-01T11:52:50.911Z,27.76
2023-03-01T11:58:25.028Z,26.91
2023-03-01T12:03:33.409Z,26.66
2023-03-01T12:08:40.027Z,27.44
2023-03-01T12:14:03.212Z,27.22
2023-03-01T12:19:20.125Z,26.68
2023-03-01T12:24:43.968Z,26.24
2023-03-01T12:29:54.255Z,26.94
2023-03-01T12:35:26.069Z,27.04
2023-03-01T12:40:45.734Z,29.44
2023-03-01T12:46:03.251Z,28.08
2023-03-01T12:51:11.624Z,26.64
2023-03-01T12:56:17.668Z,27.59
2023-03-01T13:01:35.009Z,27.21
2023-03-01T13:06:44.254Z,25.62
2023-03-01T13:11:47.109Z,23.63
2023-03-01T13:16:52.239Z,23.30
2023-03-01T13:21:56.400Z,22.44
2023-03-01T13:27:30.087Z,22.24
2023-03-01T13:32:44.490Z,21.89
2023-03-01T13:37:48.189Z,22.11
2023-03-01T13:43:03.142Z,23.31
2023-03-01T13:48:17.888Z,24.11
2023-03-01T13:53:23.196Z,24.21
2023-03-01T13:58:28.678Z,25.19
2023-03-01T14:03:34.730Z,24.98
2023-03-01T14:08:39.006Z,25.76
2023-03-01T14:13:53.923Z,25.62
2023-03-01T14:19:14.107Z,26.78
2023-03-01T14:24:21.025Z,26.84
2023-03-01T14:29:28.500Z,26.99
2023-03-01T14:34:32.645Z,26.77
2023-03-01T14:39:35.389Z,27.16
2023-03-01T14:44:38.566Z,27.12
2023-03-01T14:49:43.721Z,27.60
2023-03-01T14:54:50.293Z,27.51
2023-03-01T14:59:55.515Z,27.90
2023-03-01T15:05:02.602Z,27.90
2023-03-01T15:10:08.186Z,29.20
2023-03-01T15:15:35.857Z,29.24
2023-03-01T15:20:40.803Z,29.70
2023-03-01T15:25:46.888Z,30.50
2023-03-01T15:30:56.665Z,30.72
2023-03-01T15:36:02.449Z,30.51
2023-03-01T15:41:07.170Z,31.04
2023-03-01T15:46:24.497Z,31.76
2023-03-01T15:51:35.332Z,32.25
2023-03-01T15:56:38.094Z,32.85
2023-03-01T16:01:40.769Z,34.33
2023-03-01T16:06:44.876Z,34.97
2023-03-01T16:11:47.666Z,35.76
2023-03-01T16:16:50.851Z,35.19
2023-03-01T16:21:54.957Z,35.45
2023-03-01T16:26:57.947Z,35.83
2023-03-01T16:32:02.202Z,36.56
2023-03-01T16:37:06.558Z,36.80
2023-03-01T16:42:09.359Z,37.36
2023-03-01T16:47:12.107Z,37.92
2023-03-01T16:52:16.239Z,38.55
2023-03-01T16:57:22.038Z,39.54
2023-03-01T17:02:24.863Z,39.93
2023-03-01T17:07:28.972Z,40.34
2023-03-01T17:12:32.961Z,40.65
2023-03-01T17:17:36.642Z,40.91
2023-03-01T17:22:41.115Z,41.40
2023-03-01T17:27:43.866Z,41.74
2023-03-01T17:32:46.987Z,41.71
2023-03-01T17:37:51.269Z,42.02
2023-03-01T17:42:54.129Z,42.08
2023-03-01T17:47:56.920Z,42.34
2023-03-01T17:53:01.744Z,42.47
2023-03-01T17:58:05.106Z,42.74
2023-03-01T18:03:08.480Z,43.40
2023-03-01T18:08:12.638Z,43.72
2023-03-01T18:13:15.400Z,43.79
2023-03-01T18:18:18.169Z,43.92
2023-03-01T18:23:22.304Z,44.09
2023-03-01T18:28:26.496Z,43.90
2023-03-01T18:33:29.657Z,44.25
2023-03-01T18:38:34.220Z,44.46
2023-03-01T18:43:36.952Z,44.77
2023-03-01T18:48:40.041Z,44.83
2023-03-01T18:53:44.308Z,44.85
2023-03-01T18:58:47.182Z,44.96
2023-03-01T19:03:50.941Z,45.41
2023-03-01T19:08:55.852Z,45.60
2023-03-01T19:13:58.689Z,45.85
2023-03-01T19:19:03.062Z,45.72
2023-03-01T19:24:07.804Z,46.03
2023-03-01T19:29:11.545Z,46.12
2023-03-01T19:34:14.333Z,46.20
2023-03-01T19:39:18.491Z,45.99
2023-03-01T19:44:24.771Z,45.66
2023-03-01T19:49:29.810Z,46.00
2023-03-01T19:54:34.087Z,46.03
2023-03-01T19:59:37.084Z,46.05
2023-03-01T20:04:39.873Z,46.44
2023-03-01T20:09:43.977Z,46.15
2023-03-01T20:14:48.748Z,46.26
2023-03-01T20:19:51.582Z,46.15
2023-03-01T20:24:55.982Z,47.06
2023-03-01T20:29:59.096Z,47.12
2023-03-01T20:35:03.028Z,47.52
2023-03-01T20:40:09.554Z,47.91
2023-03-01T20:45:12.700Z,47.78
2023-03-01T20:50:15.884Z,48.24
2023-03-01T20:55:20.143Z,48.15
2023-03-01T21:00:23.133Z,48.33
2023-03-01T21:05:25.932Z,48.46
2023-03-01T21:10:30.718Z,48.78
2023-03-01T21:15:33.627Z,49.29
2023-03-01T21:20:42.586Z,48.85
2023-03-01T21:25:46.819Z,49.29
2023-03-01T21:30:49.686Z,49.09
2023-03-01T21:35:52.578Z,49.39
2023-03-01T21:40:56.812Z,49.45
2023-03-01T21:46:02.396Z,49.38
2023-03-01T21:51:05.547Z,49.49
2023-03-01T21:56:11.308Z,49.66
2023-03-01T22:01:33.453Z,49.93
2023-03-01T22:06:40.415Z,49.75
2023-03-01T22:11:47.034Z,50.17
2023-03-01T22:16:51.381Z,50.36
2023-03-01T22:21:54.544Z,50.63
2023-03-01T22:26:58.691Z,50.95
2023-03-01T22:32:01.765Z,50.73
2023-03-01T22:37:04.697Z,51.18
2023-03-01T22:42:09.756Z,50.61
2023-03-01T22:47:12.732Z,50.81
2023-03-01T22:52:15.494Z,50.58
2023-03-01T22:57:19.642Z,50.56
2023-03-01T23:02:23.283Z,50.96
2023-03-01T23:07:26.171Z,50.95
2023-03-01T23:12:30.425Z,51.73
2023-03-01T23:17:33.732Z,53.50
2023-03-01T23:22:36.524Z,54.00
2023-03-01T23:27:40.714Z,54.25
2023-03-01T23:32:43.486Z,53.67
2023-03-01T23:37:46.645Z,53.01
2023-03-01T23:42:50.825Z,52.57
2023-03-01T23:47:54.955Z,52.25
2023-03-01T23:52:57.823Z,52.03
2023-03-01T23:58:01.970Z,52.07
